sensor_id;sensor_type;location;lat;lon;timestamp;P1;durP1;ratioP1;P2;durP2;ratioP2
3036;SDS011;1528;52.550;13.408;2023-05-01T00:00:39;11.30;;;10.40;;
3036;SDS011;1528;52.550;13.408;2023-05-01T00:03:25;12.00;;;11.10;;
3036;SDS011;1528;52.550;13.408;2023-05-01T00:06:11;10.43;;;9.63;;
3036;SDS011;1528;52.550;13.408;2023-05-01T00:08:56;12.07;;;11.07;;
3036;SDS011;1528;52.550;13.408;2023-05-01T00:11:42;11.33;;;10.33;;
3036;SDS011;1528;52.550;13.408;2023-05-01T00:14:28;11.37;;;10.37;;
3036;SDS011;1528;52.550;13.408;2023-05-01T00:17:15;11.13;;;10.03;;
3036;SDS011;1528;52.550;13.408;2023-05-01T00:20:01;11.87;;;10.70;;
3036;SDS011;1528;52.550;13.408;2023-05-01T00:22:48;10.53;;;9.67;;
3036;SDS011;1528;52.550;13.408;2023-05-01T00:25:34;11.67;;;10.77;;
3036;SDS011;1528;52.550;13.408;2023-05-01T00:28:19;11.43;;;10.63;;
3036;SDS011;1528;52.550;13.408;2023-05-01T00:31:05;12.00;;;10.90;;
3036;SDS011;1528;52.550;13.408;2023-05-01T00:33:52;11.00;;;10.00;;
3036;SDS011;1528;52.550;13.408;2023-05-01T00:36:38;11.57;;;10.30;;
3036;SDS011;1528;52.550;13.408;2023-05-01T00:39:24;11.50;;;10.40;;
3036;SDS011;1528;52.550;13.408;2023-05-01T00:42:09;11.17;;;10.23;;
3036;SDS011;1528;52.550;13.408;2023-05-01T00:44:55;10.90;;;10.00;;
3036;SDS011;1528;52.550;13.408;2023-05-01T00:47:40;11.10;;;10.30;;
3036;SDS011;1528;52.550;13.408;2023-05-01T00:50:27;11.10;;;10.07;;
3036;SDS011;1528;52.550;13.408;2023-05-01T00:53:13;10.50;;;9.60;;
3036;SDS011;1528;52.550;13.408;2023-05-01T00:55:59;10.40;;;9.40;;
3036;SDS011;1528;52.550;13.408;2023-05-01T00:58:45;10.87;;;9.67;;
3036;SDS011;1528;52.550;13.408;2023-05-01T01:01:34;9.80;;;9.00;;
3036;SDS011;1528;52.550;13.408;2023-05-01T01:04:19;10.10;;;9.43;;
3036;SDS011;1528;52.550;13.408;2023-05-01T01:07:08;9.67;;;8.93;;
3036;SDS011;1528;52.550;13.408;2023-05-01T01:10:04;9.57;;;8.73;;
3036;SDS011;1528;52.550;13.408;2023-05-01T01:13:01;10.30;;;9.23;;
3036;SDS011;1528;52.550;13.408;2023-05-01T01:15:52;10.17;;;9.37;;
3036;SDS011;1528;52.550;13.408;2023-05-01T01:18:42;9.80;;;8.90;;
3036;SDS011;1528;52.550;13.408;2023-05-01T01:21:34;10.23;;;9.20;;
3036;SDS011;1528;52.550;13.408;2023-05-01T01:24:40;9.50;;;8.80;;
3036;SDS011;1528;52.550;13.408;2023-05-01T01:27:53;9.70;;;9.00;;
3036;SDS011;1528;52.550;13.408;2023-05-01T01:31:04;11.63;;;9.03;;
3036;SDS011;1528;52.550;13.408;2023-05-01T01:34:01;10.20;;;9.10;;
3036;SDS011;1528;52.550;13.408;2023-05-01T01:36:54;10.33;;;9.53;;
3036;SDS011;1528;52.550;13.408;2023-05-01T01:39:45;11.67;;;9.70;;
3036;SDS011;1528;52.550;13.408;2023-05-01T01:42:33;9.33;;;8.63;;
3036;SDS011;1528;52.550;13.408;2023-05-01T01:45:24;9.57;;;8.80;;
3036;SDS011;1528;52.550;13.408;2023-05-01T01:48:17;10.60;;;9.60;;
3036;SDS011;1528;52.550;13.408;2023-05-01T01:51:10;9.60;;;8.80;;
3036;SDS011;1528;52.550;13.408;2023-05-01T01:53:59;9.00;;;8.17;;
3036;SDS011;1528;52.550;13.408;2023-05-01T01:56:46;12.00;;;9.30;;
3036;SDS011;1528;52.550;13.408;2023-05-01T01:59:34;9.30;;;8.60;;
3036;SDS011;1528;52.550;13.408;2023-05-01T02:02:19;9.37;;;8.47;;
3036;SDS011;1528;52.550;13.408;2023-05-01T02:05:06;9.93;;;9.00;;
3036;SDS011;1528;52.550;13.408;2023-05-01T02:07:54;9.80;;;8.90;;
3036;SDS011;1528;52.550;13.408;2023-05-01T02:10:41;9.10;;;8.30;;
3036;SDS011;1528;52.550;13.408;2023-05-01T02:13:28;9.60;;;8.80;;
3036;SDS011;1528;52.550;13.408;2023-05-01T02:16:15;8.80;;;8.00;;
3036;SDS011;1528;52.550;13.408;2023-05-01T02:19:03;10.20;;;9.07;;
3036;SDS011;1528;52.550;13.408;2023-05-01T02:21:49;9.60;;;8.60;;
3036;SDS011;1528;52.550;13.408;2023-05-01T02:24:39;9.80;;;9.07;;
3036;SDS011;1528;52.550;13.408;2023-05-01T02:27:29;9.87;;;9.10;;
3036;SDS011;1528;52.550;13.408;2023-05-01T02:30:16;10.43;;;9.60;;
3036;SDS011;1528;52.550;13.408;2023-05-01T02:33:02;10.03;;;9.03;;
3036;SDS011;1528;52.550;13.408;2023-05-01T02:35:48;10.83;;;9.77;;
3036;SDS011;1528;52.550;13.408;2023-05-01T02:38:33;10.83;;;8.70;;
3036;SDS011;1528;52.550;13.408;2023-05-01T02:41:21;11.30;;;10.10;;
3036;SDS011;1528;52.550;13.408;2023-05-01T02:44:07;10.40;;;9.53;;
3036;SDS011;1528;52.550;13.408;2023-05-01T02:46:55;10.63;;;9.87;;
3036;SDS011;1528;52.550;13.408;2023-05-01T02:49:42;10.10;;;9.40;;
3036;SDS011;1528;52.550;13.408;2023-05-01T02:52:31;10.60;;;9.60;;
3036;SDS011;1528;52.550;13.408;2023-05-01T02:55:16;10.47;;;9.47;;
3036;SDS011;1528;52.550;13.408;2023-05-01T02:58:03;10.30;;;9.40;;
3036;SDS011;1528;52.550;13.408;2023-05-01T03:00:50;9.17;;;8.57;;
3036;SDS011;1528;52.550;13.408;2023-05-01T03:03:36;10.50;;;9.60;;
3036;SDS011;1528;52.550;13.408;2023-05-01T03:06:21;9.33;;;8.53;;
3036;SDS011;1528;52.550;13.408;2023-05-01T03:09:07;10.33;;;9.40;;
3036;SDS011;1528;52.550;13.408;2023-05-01T03:11:53;9.53;;;8.77;;
3036;SDS011;1528;52.550;13.408;2023-05-01T03:14:40;9.10;;;8.30;;
3036;SDS011;1528;52.550;13.408;2023-05-01T03:17:25;10.67;;;9.77;;
3036;SDS011;1528;52.550;13.408;2023-05-01T03:20:11;9.80;;;9.00;;
3036;SDS011;1528;52.550;13.408;2023-05-01T03:22:56;10.33;;;9.43;;
3036;SDS011;1528;52.550;13.408;2023-05-01T03:25:42;11.60;;;10.60;;
3036;SDS011;1528;52.550;13.408;2023-05-01T03:28:28;10.60;;;9.87;;
3036;SDS011;1528;52.550;13.408;2023-05-01T03:31:15;8.57;;;7.80;;
3036;SDS011;1528;52.550;13.408;2023-05-01T03:34:00;9.83;;;9.03;;
3036;SDS011;1528;52.550;13.408;2023-05-01T03:36:46;10.03;;;9.03;;
3036;SDS011;1528;52.550;13.408;2023-05-01T03:39:32;10.10;;;9.30;;
3036;SDS011;1528;52.550;13.408;2023-05-01T03:42:17;9.80;;;8.90;;
3036;SDS011;1528;52.550;13.408;2023-05-01T03:45:03;9.33;;;8.53;;
3036;SDS011;1528;52.550;13.408;2023-05-01T03:47:51;9.77;;;9.03;;
3036;SDS011;1528;52.550;13.408;2023-05-01T03:50:36;10.23;;;9.53;;
3036;SDS011;1528;52.550;13.408;2023-05-01T03:53:22;9.43;;;8.73;;
3036;SDS011;1528;52.550;13.408;2023-05-01T03:56:07;9.60;;;8.90;;
3036;SDS011;1528;52.550;13.408;2023-05-01T03:58:53;10.23;;;9.43;;
3036;SDS011;1528;52.550;13.408;2023-05-01T04:01:40;9.87;;;8.87;;
3036;SDS011;1528;52.550;13.408;2023-05-01T04:04:28;10.60;;;9.80;;
3036;SDS011;1528;52.550;13.408;2023-05-01T04:07:13;10.07;;;9.10;;
3036;SDS011;1528;52.550;13.408;2023-05-01T04:09:59;9.27;;;8.57;;
3036;SDS011;1528;52.550;13.408;2023-05-01T04:12:45;9.10;;;8.40;;
3036;SDS011;1528;52.550;13.408;2023-05-01T04:15:30;10.47;;;9.57;;
3036;SDS011;1528;52.550;13.408;2023-05-01T04:18:16;10.67;;;9.57;;
3036;SDS011;1528;52.550;13.408;2023-05-01T04:21:03;12.90;;;9.60;;
3036;SDS011;1528;52.550;13.408;2023-05-01T04:23:49;9.40;;;8.70;;
3036;SDS011;1528;52.550;13.408;2023-05-01T04:26:34;9.70;;;8.80;;
3036;SDS011;1528;52.550;13.408;2023-05-01T04:29:21;10.53;;;9.63;;
3036;SDS011;1528;52.550;13.408;2023-05-01T04:32:07;10.83;;;9.77;;
3036;SDS011;1528;52.550;13.408;2023-05-01T04:34:52;10.90;;;10.00;;
3036;SDS011;1528;52.550;13.408;2023-05-01T04:37:39;9.40;;;8.50;;
3036;SDS011;1528;52.550;13.408;2023-05-01T04:40:25;9.37;;;8.67;;
3036;SDS011;1528;52.550;13.408;2023-05-01T04:43:10;10.03;;;9.23;;
3036;SDS011;1528;52.550;13.408;2023-05-01T04:45:56;11.53;;;10.40;;
3036;SDS011;1528;52.550;13.408;2023-05-01T04:48:41;10.80;;;10.00;;
3036;SDS011;1528;52.550;13.408;2023-05-01T04:51:27;11.77;;;10.80;;
3036;SDS011;1528;52.550;13.408;2023-05-01T04:54:15;10.10;;;9.30;;
3036;SDS011;1528;52.550;13.408;2023-05-01T04:57:01;10.93;;;10.03;;
3036;SDS011;1528;52.550;13.408;2023-05-01T04:59:47;11.00;;;10.20;;
3036;SDS011;1528;52.550;13.408;2023-05-01T05:02:32;10.53;;;9.53;;
3036;SDS011;1528;52.550;13.408;2023-05-01T05:05:18;10.07;;;9.13;;
3036;SDS011;1528;52.550;13.408;2023-05-01T05:08:04;9.20;;;8.40;;
3036;SDS011;1528;52.550;13.408;2023-05-01T05:10:56;8.90;;;8.20;;
3036;SDS011;1528;52.550;13.408;2023-05-01T05:13:42;9.60;;;8.70;;
3036;SDS011;1528;52.550;13.408;2023-05-01T05:16:28;11.17;;;10.37;;
3036;SDS011;1528;52.550;13.408;2023-05-01T05:19:14;11.03;;;10.00;;
3036;SDS011;1528;52.550;13.408;2023-05-01T05:22:00;10.43;;;9.73;;
3036;SDS011;1528;52.550;13.408;2023-05-01T05:24:46;9.60;;;8.90;;
3036;SDS011;1528;52.550;13.408;2023-05-01T05:27:38;9.00;;;8.30;;
3036;SDS011;1528;52.550;13.408;2023-05-01T05:30:24;9.90;;;8.83;;
3036;SDS011;1528;52.550;13.408;2023-05-01T05:33:09;9.13;;;8.53;;
3036;SDS011;1528;52.550;13.408;2023-05-01T05:35:56;11.60;;;9.20;;
3036;SDS011;1528;52.550;13.408;2023-05-01T05:38:42;9.93;;;9.20;;
3036;SDS011;1528;52.550;13.408;2023-05-01T05:41:28;9.67;;;8.97;;
3036;SDS011;1528;52.550;13.408;2023-05-01T05:44:17;10.60;;;9.70;;
3036;SDS011;1528;52.550;13.408;2023-05-01T05:47:03;10.07;;;9.17;;
3036;SDS011;1528;52.550;13.408;2023-05-01T05:49:48;8.20;;;7.40;;
3036;SDS011;1528;52.550;13.408;2023-05-01T05:52:34;8.93;;;8.30;;
3036;SDS011;1528;52.550;13.408;2023-05-01T05:55:19;9.03;;;8.23;;
3036;SDS011;1528;52.550;13.408;2023-05-01T05:58:05;10.07;;;9.27;;
3036;SDS011;1528;52.550;13.408;2023-05-01T06:00:52;9.20;;;8.60;;
3036;SDS011;1528;52.550;13.408;2023-05-01T06:03:38;9.10;;;8.30;;
3036;SDS011;1528;52.550;13.408;2023-05-01T06:06:24;9.43;;;8.80;;
3036;SDS011;1528;52.550;13.408;2023-05-01T06:09:10;10.00;;;9.10;;
3036;SDS011;1528;52.550;13.408;2023-05-01T06:11:55;9.70;;;8.90;;
3036;SDS011;1528;52.550;13.408;2023-05-01T06:14:42;10.33;;;9.43;;
3036;SDS011;1528;52.550;13.408;2023-05-01T06:17:29;10.50;;;8.13;;
3036;SDS011;1528;52.550;13.408;2023-05-01T06:20:14;8.80;;;8.10;;
3036;SDS011;1528;52.550;13.408;2023-05-01T06:23:00;10.23;;;9.40;;
3036;SDS011;1528;52.550;13.408;2023-05-01T06:25:46;11.30;;;9.57;;
3036;SDS011;1528;52.550;13.408;2023-05-01T06:28:32;9.77;;;8.83;;
3036;SDS011;1528;52.550;13.408;2023-05-01T06:31:18;9.37;;;8.77;;
3036;SDS011;1528;52.550;13.408;2023-05-01T06:34:05;10.73;;;9.83;;
3036;SDS011;1528;52.550;13.408;2023-05-01T06:36:51;9.37;;;8.53;;
3036;SDS011;1528;52.550;13.408;2023-05-01T06:39:37;9.37;;;8.53;;
3036;SDS011;1528;52.550;13.408;2023-05-01T06:42:22;9.40;;;8.80;;
3036;SDS011;1528;52.550;13.408;2023-05-01T06:45:08;9.63;;;8.70;;
3036;SDS011;1528;52.550;13.408;2023-05-01T06:47:53;9.03;;;8.20;;
3036;SDS011;1528;52.550;13.408;2023-05-01T06:50:40;8.73;;;7.93;;
3036;SDS011;1528;52.550;13.408;2023-05-01T06:53:26;8.13;;;7.53;;
3036;SDS011;1528;52.550;13.408;2023-05-01T06:56:12;9.90;;;9.10;;
3036;SDS011;1528;52.550;13.408;2023-05-01T06:58:57;7.50;;;6.90;;
3036;SDS011;1528;52.550;13.408;2023-05-01T07:01:43;11.40;;;8.83;;
3036;SDS011;1528;52.550;13.408;2023-05-01T07:04:30;8.80;;;8.10;;
3036;SDS011;1528;52.550;13.408;2023-05-01T07:07:17;8.50;;;7.73;;
3036;SDS011;1528;52.550;13.408;2023-05-01T07:10:03;8.40;;;7.80;;
3036;SDS011;1528;52.550;13.408;2023-05-01T07:12:49;9.10;;;8.40;;
3036;SDS011;1528;52.550;13.408;2023-05-01T07:15:34;9.33;;;8.53;;
3036;SDS011;1528;52.550;13.408;2023-05-01T07:18:20;9.13;;;8.53;;
3036;SDS011;1528;52.550;13.408;2023-05-01T07:21:06;9.70;;;8.90;;
3036;SDS011;1528;52.550;13.408;2023-05-01T07:23:54;8.57;;;7.87;;
3036;SDS011;1528;52.550;13.408;2023-05-01T07:26:39;9.50;;;8.80;;
3036;SDS011;1528;52.550;13.408;2023-05-01T07:29:25;9.03;;;8.23;;
3036;SDS011;1528;52.550;13.408;2023-05-01T07:32:11;9.63;;;9.03;;
3036;SDS011;1528;52.550;13.408;2023-05-01T07:34:57;9.30;;;8.50;;
3036;SDS011;1528;52.550;13.408;2023-05-01T07:37:42;9.30;;;8.57;;
3036;SDS011;1528;52.550;13.408;2023-05-01T07:40:31;10.53;;;9.63;;
3036;SDS011;1528;52.550;13.408;2023-05-01T07:43:17;10.30;;;8.30;;
3036;SDS011;1528;52.550;13.408;2023-05-01T07:46:02;9.60;;;8.77;;
3036;SDS011;1528;52.550;13.408;2023-05-01T07:48:48;9.17;;;8.57;;
3036;SDS011;1528;52.550;13.408;2023-05-01T07:51:34;7.87;;;7.17;;
3036;SDS011;1528;52.550;13.408;2023-05-01T07:54:20;9.30;;;8.60;;
3036;SDS011;1528;52.550;13.408;2023-05-01T07:57:07;9.37;;;8.43;;
3036;SDS011;1528;52.550;13.408;2023-05-01T07:59:53;8.37;;;7.80;;
3036;SDS011;1528;52.550;13.408;2023-05-01T08:02:39;9.23;;;8.33;;
3036;SDS011;1528;52.550;13.408;2023-05-01T08:05:25;10.30;;;8.63;;
3036;SDS011;1528;52.550;13.408;2023-05-01T08:08:11;10.77;;;8.53;;
3036;SDS011;1528;52.550;13.408;2023-05-01T08:11:02;10.13;;;9.37;;
3036;SDS011;1528;52.550;13.408;2023-05-01T08:13:49;9.60;;;9.00;;
3036;SDS011;1528;52.550;13.408;2023-05-01T08:16:34;9.07;;;8.27;;
3036;SDS011;1528;52.550;13.408;2023-05-01T08:19:20;9.10;;;7.63;;
3036;SDS011;1528;52.550;13.408;2023-05-01T08:22:06;9.43;;;8.80;;
3036;SDS011;1528;52.550;13.408;2023-05-01T08:24:53;9.40;;;8.80;;
3036;SDS011;1528;52.550;13.408;2023-05-01T08:27:39;9.60;;;8.80;;
3036;SDS011;1528;52.550;13.408;2023-05-01T08:30:27;9.87;;;9.20;;
3036;SDS011;1528;52.550;13.408;2023-05-01T08:33:15;9.20;;;8.60;;
3036;SDS011;1528;52.550;13.408;2023-05-01T08:36:00;9.00;;;8.30;;
3036;SDS011;1528;52.550;13.408;2023-05-01T08:38:46;8.77;;;8.17;;
3036;SDS011;1528;52.550;13.408;2023-05-01T08:41:32;8.80;;;8.20;;
3036;SDS011;1528;52.550;13.408;2023-05-01T08:44:19;8.10;;;7.50;;
3036;SDS011;1528;52.550;13.408;2023-05-01T08:47:11;8.70;;;8.20;;
3036;SDS011;1528;52.550;13.408;2023-05-01T08:50:00;8.93;;;8.13;;
3036;SDS011;1528;52.550;13.408;2023-05-01T08:52:47;9.90;;;9.10;;
3036;SDS011;1528;52.550;13.408;2023-05-01T08:55:37;9.00;;;8.40;;
3036;SDS011;1528;52.550;13.408;2023-05-01T08:58:23;8.90;;;8.30;;
3036;SDS011;1528;52.550;13.408;2023-05-01T09:01:11;10.10;;;9.37;;
3036;SDS011;1528;52.550;13.408;2023-05-01T09:04:02;11.30;;;10.50;;
3036;SDS011;1528;52.550;13.408;2023-05-01T09:06:48;10.27;;;9.50;;
3036;SDS011;1528;52.550;13.408;2023-05-01T09:09:34;9.83;;;9.13;;
3036;SDS011;1528;52.550;13.408;2023-05-01T09:12:21;8.70;;;8.10;;
3036;SDS011;1528;52.550;13.408;2023-05-01T09:15:10;10.13;;;9.40;;
3036;SDS011;1528;52.550;13.408;2023-05-01T09:17:56;11.07;;;10.20;;
3036;SDS011;1528;52.550;13.408;2023-05-01T09:20:45;8.17;;;7.50;;
3036;SDS011;1528;52.550;13.408;2023-05-01T09:23:31;8.50;;;7.80;;
3036;SDS011;1528;52.550;13.408;2023-05-01T09:26:18;7.90;;;7.40;;
3036;SDS011;1528;52.550;13.408;2023-05-01T09:29:04;7.77;;;7.17;;
3036;SDS011;1528;52.550;13.408;2023-05-01T09:31:50;9.93;;;9.13;;
3036;SDS011;1528;52.550;13.408;2023-05-01T09:34:35;10.17;;;9.37;;
3036;SDS011;1528;52.550;13.408;2023-05-01T09:37:26;8.60;;;8.00;;
3036;SDS011;1528;52.550;13.408;2023-05-01T09:40:12;10.97;;;10.30;;
3036;SDS011;1528;52.550;13.408;2023-05-01T09:42:58;12.40;;;11.70;;
3036;SDS011;1528;52.550;13.408;2023-05-01T09:45:46;11.40;;;10.60;;
3036;SDS011;1528;52.550;13.408;2023-05-01T09:48:56;11.37;;;10.67;;
3036;SDS011;1528;52.550;13.408;2023-05-01T09:51:42;13.27;;;12.67;;
3036;SDS011;1528;52.550;13.408;2023-05-01T09:54:30;13.50;;;12.83;;
3036;SDS011;1528;52.550;13.408;2023-05-01T09:57:16;12.50;;;11.70;;
3036;SDS011;1528;52.550;13.408;2023-05-01T10:00:01;12.93;;;12.30;;
3036;SDS011;1528;52.550;13.408;2023-05-01T10:02:51;13.63;;;12.90;;
3036;SDS011;1528;52.550;13.408;2023-05-01T10:05:41;12.67;;;11.73;;
3036;SDS011;1528;52.550;13.408;2023-05-01T10:08:32;12.50;;;11.60;;
3036;SDS011;1528;52.550;13.408;2023-05-01T10:11:30;12.27;;;11.40;;
3036;SDS011;1528;52.550;13.408;2023-05-01T10:14:30;13.23;;;12.47;;
3036;SDS011;1528;52.550;13.408;2023-05-01T10:17:21;12.00;;;11.10;;
3036;SDS011;1528;52.550;13.408;2023-05-01T10:20:07;11.40;;;10.90;;
3036;SDS011;1528;52.550;13.408;2023-05-01T10:22:54;13.83;;;13.23;;
3036;SDS011;1528;52.550;13.408;2023-05-01T10:25:39;13.70;;;12.67;;
3036;SDS011;1528;52.550;13.408;2023-05-01T10:28:27;11.20;;;10.60;;
3036;SDS011;1528;52.550;13.408;2023-05-01T10:31:13;12.27;;;11.27;;
3036;SDS011;1528;52.550;13.408;2023-05-01T10:33:59;12.73;;;12.13;;
3036;SDS011;1528;52.550;13.408;2023-05-01T10:36:46;12.70;;;12.10;;
3036;SDS011;1528;52.550;13.408;2023-05-01T10:39:37;10.93;;;10.33;;
3036;SDS011;1528;52.550;13.408;2023-05-01T10:42:23;13.13;;;12.50;;
3036;SDS011;1528;52.550;13.408;2023-05-01T10:45:27;14.00;;;13.40;;
3036;SDS011;1528;52.550;13.408;2023-05-01T10:51:43;12.90;;;12.30;;
3036;SDS011;1528;52.550;13.408;2023-05-01T10:54:42;15.30;;;14.40;;
3036;SDS011;1528;52.550;13.408;2023-05-01T10:57:40;10.17;;;9.57;;
3036;SDS011;1528;52.550;13.408;2023-05-01T11:00:27;10.53;;;9.90;;
3036;SDS011;1528;52.550;13.408;2023-05-01T11:06:18;10.57;;;9.87;;
3036;SDS011;1528;52.550;13.408;2023-05-01T11:15:34;11.33;;;10.63;;
3036;SDS011;1528;52.550;13.408;2023-05-01T11:18:20;17.00;;;16.20;;
3036;SDS011;1528;52.550;13.408;2023-05-01T11:24:10;10.70;;;10.03;;
3036;SDS011;1528;52.550;13.408;2023-05-01T11:26:55;9.23;;;8.63;;
3036;SDS011;1528;52.550;13.408;2023-05-01T11:29:43;10.33;;;9.40;;
3036;SDS011;1528;52.550;13.408;2023-05-01T11:32:33;9.20;;;8.70;;
3036;SDS011;1528;52.550;13.408;2023-05-01T11:35:21;10.30;;;9.70;;
3036;SDS011;1528;52.550;13.408;2023-05-01T11:38:15;13.73;;;12.90;;
3036;SDS011;1528;52.550;13.408;2023-05-01T11:41:02;12.23;;;11.53;;
3036;SDS011;1528;52.550;13.408;2023-05-01T11:43:48;14.37;;;13.47;;
3036;SDS011;1528;52.550;13.408;2023-05-01T11:46:35;11.17;;;10.57;;
3036;SDS011;1528;52.550;13.408;2023-05-01T11:49:26;12.83;;;12.23;;
3036;SDS011;1528;52.550;13.408;2023-05-01T11:52:12;13.43;;;12.70;;
3036;SDS011;1528;52.550;13.408;2023-05-01T11:54:58;14.90;;;14.20;;
3036;SDS011;1528;52.550;13.408;2023-05-01T11:57:44;9.33;;;8.83;;
3036;SDS011;1528;52.550;13.408;2023-05-01T12:00:31;14.67;;;13.70;;
3036;SDS011;1528;52.550;13.408;2023-05-01T12:03:19;15.77;;;15.00;;
3036;SDS011;1528;52.550;13.408;2023-05-01T12:06:07;10.93;;;10.33;;
3036;SDS011;1528;52.550;13.408;2023-05-01T12:08:53;12.33;;;11.73;;
3036;SDS011;1528;52.550;13.408;2023-05-01T12:11:39;11.50;;;11.00;;
3036;SDS011;1528;52.550;13.408;2023-05-01T12:14:24;16.17;;;15.57;;
3036;SDS011;1528;52.550;13.408;2023-05-01T12:17:10;14.67;;;13.83;;
3036;SDS011;1528;52.550;13.408;2023-05-01T12:19:56;11.60;;;11.10;;
3036;SDS011;1528;52.550;13.408;2023-05-01T12:22:49;13.43;;;12.73;;
3036;SDS011;1528;52.550;13.408;2023-05-01T12:25:36;14.73;;;14.03;;
3036;SDS011;1528;52.550;13.408;2023-05-01T12:28:22;15.43;;;14.80;;
3036;SDS011;1528;52.550;13.408;2023-05-01T12:31:10;13.43;;;12.83;;
3036;SDS011;1528;52.550;13.408;2023-05-01T12:33:56;11.87;;;11.27;;
3036;SDS011;1528;52.550;13.408;2023-05-01T12:36:51;12.80;;;12.30;;
3036;SDS011;1528;52.550;13.408;2023-05-01T12:39:39;12.93;;;12.33;;
3036;SDS011;1528;52.550;13.408;2023-05-01T12:42:27;19.00;;;18.40;;
3036;SDS011;1528;52.550;13.408;2023-05-01T12:45:13;14.83;;;14.23;;
3036;SDS011;1528;52.550;13.408;2023-05-01T12:47:58;12.70;;;12.13;;
3036;SDS011;1528;52.550;13.408;2023-05-01T12:50:44;15.17;;;14.47;;
3036;SDS011;1528;52.550;13.408;2023-05-01T12:53:36;15.07;;;14.53;;
3036;SDS011;1528;52.550;13.408;2023-05-01T12:56:29;12.90;;;12.40;;
3036;SDS011;1528;52.550;13.408;2023-05-01T12:59:18;11.87;;;11.23;;
3036;SDS011;1528;52.550;13.408;2023-05-01T13:02:06;13.13;;;12.43;;
3036;SDS011;1528;52.550;13.408;2023-05-01T13:05:00;14.43;;;13.83;;
3036;SDS011;1528;52.550;13.408;2023-05-01T13:07:49;11.63;;;11.03;;
3036;SDS011;1528;52.550;13.408;2023-05-01T13:10:35;9.87;;;9.37;;
3036;SDS011;1528;52.550;13.408;2023-05-01T13:13:27;11.33;;;10.73;;
3036;SDS011;1528;52.550;13.408;2023-05-01T13:16:14;12.10;;;11.50;;
3036;SDS011;1528;52.550;13.408;2023-05-01T13:19:01;10.47;;;9.90;;
3036;SDS011;1528;52.550;13.408;2023-05-01T13:21:48;10.80;;;10.20;;
3036;SDS011;1528;52.550;13.408;2023-05-01T13:24:37;9.80;;;9.20;;
3036;SDS011;1528;52.550;13.408;2023-05-01T13:27:23;10.90;;;10.20;;
3036;SDS011;1528;52.550;13.408;2023-05-01T13:30:11;11.53;;;10.73;;
3036;SDS011;1528;52.550;13.408;2023-05-01T13:32:57;11.40;;;10.80;;
3036;SDS011;1528;52.550;13.408;2023-05-01T13:35:43;23.83;;;22.27;;
3036;SDS011;1528;52.550;13.408;2023-05-01T13:38:28;11.47;;;10.67;;
3036;SDS011;1528;52.550;13.408;2023-05-01T13:41:18;11.50;;;10.83;;
3036;SDS011;1528;52.550;13.408;2023-05-01T13:44:05;13.57;;;12.70;;
3036;SDS011;1528;52.550;13.408;2023-05-01T13:46:52;16.20;;;15.33;;
3036;SDS011;1528;52.550;13.408;2023-05-01T13:49:37;13.10;;;12.27;;
3036;SDS011;1528;52.550;13.408;2023-05-01T13:52:25;14.67;;;14.07;;
3036;SDS011;1528;52.550;13.408;2023-05-01T13:55:11;10.63;;;10.10;;
3036;SDS011;1528;52.550;13.408;2023-05-01T13:57:57;15.00;;;14.40;;
3036;SDS011;1528;52.550;13.408;2023-05-01T14:00:45;11.70;;;11.10;;
3036;SDS011;1528;52.550;13.408;2023-05-01T14:03:36;12.23;;;11.37;;
3036;SDS011;1528;52.550;13.408;2023-05-01T14:06:23;12.00;;;11.30;;
3036;SDS011;1528;52.550;13.408;2023-05-01T14:09:09;11.67;;;10.90;;
3036;SDS011;1528;52.550;13.408;2023-05-01T14:11:55;11.90;;;11.30;;
3036;SDS011;1528;52.550;13.408;2023-05-01T14:14:42;17.53;;;16.60;;
3036;SDS011;1528;52.550;13.408;2023-05-01T14:17:32;14.77;;;14.17;;
3036;SDS011;1528;52.550;13.408;2023-05-01T14:20:22;11.73;;;10.60;;
3036;SDS011;1528;52.550;13.408;2023-05-01T14:23:09;9.80;;;9.20;;
3036;SDS011;1528;52.550;13.408;2023-05-01T14:25:55;12.97;;;12.27;;
3036;SDS011;1528;52.550;13.408;2023-05-01T14:28:41;14.37;;;13.67;;
3036;SDS011;1528;52.550;13.408;2023-05-01T14:31:28;15.00;;;14.30;;
3036;SDS011;1528;52.550;13.408;2023-05-01T14:34:14;12.40;;;11.90;;
3036;SDS011;1528;52.550;13.408;2023-05-01T14:37:03;12.10;;;11.50;;
3036;SDS011;1528;52.550;13.408;2023-05-01T14:39:49;12.50;;;12.00;;
3036;SDS011;1528;52.550;13.408;2023-05-01T14:42:35;14.50;;;13.80;;
3036;SDS011;1528;52.550;13.408;2023-05-01T14:45:20;13.73;;;13.23;;
3036;SDS011;1528;52.550;13.408;2023-05-01T14:48:06;13.50;;;12.90;;
3036;SDS011;1528;52.550;13.408;2023-05-01T14:50:52;13.33;;;12.80;;
3036;SDS011;1528;52.550;13.408;2023-05-01T14:53:40;12.80;;;12.30;;
3036;SDS011;1528;52.550;13.408;2023-05-01T14:56:26;12.87;;;12.37;;
3036;SDS011;1528;52.550;13.408;2023-05-01T14:59:12;11.23;;;10.73;;
3036;SDS011;1528;52.550;13.408;2023-05-01T15:01:58;14.20;;;13.60;;
3036;SDS011;1528;52.550;13.408;2023-05-01T15:04:44;12.63;;;12.10;;
3036;SDS011;1528;52.550;13.408;2023-05-01T15:07:29;12.27;;;11.47;;
3036;SDS011;1528;52.550;13.408;2023-05-01T15:10:17;12.03;;;11.43;;
3036;SDS011;1528;52.550;13.408;2023-05-01T15:13:03;9.27;;;8.77;;
3036;SDS011;1528;52.550;13.408;2023-05-01T15:15:49;10.83;;;10.30;;
3036;SDS011;1528;52.550;13.408;2023-05-01T15:18:35;12.80;;;12.00;;
3036;SDS011;1528;52.550;13.408;2023-05-01T15:21:20;9.13;;;8.30;;
3036;SDS011;1528;52.550;13.408;2023-05-01T15:24:06;9.47;;;8.97;;
3036;SDS011;1528;52.550;13.408;2023-05-01T15:26:53;9.07;;;8.37;;
3036;SDS011;1528;52.550;13.408;2023-05-01T15:29:38;9.23;;;8.73;;
3036;SDS011;1528;52.550;13.408;2023-05-01T15:32:24;8.60;;;8.00;;
3036;SDS011;1528;52.550;13.408;2023-05-01T15:35:09;9.33;;;8.63;;
3036;SDS011;1528;52.550;13.408;2023-05-01T15:37:55;8.60;;;8.00;;
3036;SDS011;1528;52.550;13.408;2023-05-01T15:40:41;9.30;;;8.60;;
3036;SDS011;1528;52.550;13.408;2023-05-01T15:43:28;9.40;;;8.70;;
3036;SDS011;1528;52.550;13.408;2023-05-01T15:46:14;8.73;;;8.23;;
3036;SDS011;1528;52.550;13.408;2023-05-01T15:49:00;8.70;;;8.00;;
3036;SDS011;1528;52.550;13.408;2023-05-01T15:51:46;8.10;;;7.50;;
3036;SDS011;1528;52.550;13.408;2023-05-01T15:54:32;8.50;;;7.70;;
3036;SDS011;1528;52.550;13.408;2023-05-01T15:57:17;7.80;;;7.30;;
3036;SDS011;1528;52.550;13.408;2023-05-01T16:00:05;9.60;;;8.93;;
3036;SDS011;1528;52.550;13.408;2023-05-01T16:02:53;9.43;;;8.77;;
3036;SDS011;1528;52.550;13.408;2023-05-01T16:05:38;10.30;;;9.60;;
3036;SDS011;1528;52.550;13.408;2023-05-01T16:08:24;9.67;;;8.97;;
3036;SDS011;1528;52.550;13.408;2023-05-01T16:11:10;8.20;;;7.53;;
3036;SDS011;1528;52.550;13.408;2023-05-01T16:13:56;10.70;;;9.80;;
3036;SDS011;1528;52.550;13.408;2023-05-01T16:16:44;8.40;;;7.70;;
3036;SDS011;1528;52.550;13.408;2023-05-01T16:19:29;8.60;;;7.90;;
3036;SDS011;1528;52.550;13.408;2023-05-01T16:22:15;9.43;;;8.73;;
3036;SDS011;1528;52.550;13.408;2023-05-01T16:25:01;9.90;;;8.97;;
3036;SDS011;1528;52.550;13.408;2023-05-01T16:27:47;9.53;;;8.80;;
3036;SDS011;1528;52.550;13.408;2023-05-01T16:30:33;8.20;;;7.50;;
3036;SDS011;1528;52.550;13.408;2023-05-01T16:33:20;10.80;;;10.00;;
3036;SDS011;1528;52.550;13.408;2023-05-01T16:36:07;9.07;;;8.20;;
3036;SDS011;1528;52.550;13.408;2023-05-01T16:38:53;11.43;;;9.63;;
3036;SDS011;1528;52.550;13.408;2023-05-01T16:41:41;9.20;;;8.60;;
3036;SDS011;1528;52.550;13.408;2023-05-01T16:44:28;8.97;;;8.20;;
3036;SDS011;1528;52.550;13.408;2023-05-01T16:47:14;9.17;;;8.47;;
3036;SDS011;1528;52.550;13.408;2023-05-01T16:50:01;9.33;;;8.63;;
3036;SDS011;1528;52.550;13.408;2023-05-01T16:52:47;8.43;;;7.80;;
3036;SDS011;1528;52.550;13.408;2023-05-01T16:55:33;9.40;;;8.77;;
3036;SDS011;1528;52.550;13.408;2023-05-01T16:58:18;9.90;;;9.00;;
3036;SDS011;1528;52.550;13.408;2023-05-01T17:01:05;10.10;;;9.30;;
3036;SDS011;1528;52.550;13.408;2023-05-01T17:03:51;11.10;;;10.10;;